sensor_id;sensor_type;location;lat;lon;timestamp;P1;durP1;ratioP1;P2;durP2;ratioP2
18606;SDS011;9433;42.678;23.360;2022-09-09T00:00:49;8.13;;;5.63;;
18606;SDS011;9433;42.678;23.360;2022-09-09T00:03:23;7.93;;;5.60;;
18606;SDS011;9433;42.678;23.360;2022-09-09T00:05:55;7.57;;;5.47;;
18606;SDS011;9433;42.678;23.360;2022-09-09T00:08:32;9.10;;;5.93;;
18606;SDS011;9433;42.678;23.360;2022-09-09T00:11:09;6.83;;;5.83;;
18606;SDS011;9433;42.678;23.360;2022-09-09T00:13:41;7.33;;;5.77;;
18606;SDS011;9433;42.678;23.360;2022-09-09T00:16:14;7.07;;;5.77;;
18606;SDS011;9433;42.678;23.360;2022-09-09T00:18:48;7.47;;;5.70;;
18606;SDS011;9433;42.678;23.360;2022-09-09T00:21:23;6.43;;;5.67;;
18606;SDS011;9433;42.678;23.360;2022-09-09T00:23:57;7.27;;;5.57;;
18606;SDS011;9433;42.678;23.360;2022-09-09T00:26:26;7.23;;;6.40;;
18606;SDS011;9433;42.678;23.360;2022-09-09T00:29:04;6.87;;;6.17;;
18606;SDS011;9433;42.678;23.360;2022-09-09T00:31:40;6.27;;;5.57;;
18606;SDS011;9433;42.678;23.360;2022-09-09T00:34:09;7.33;;;6.50;;
18606;SDS011;9433;42.678;23.360;2022-09-09T00:36:40;9.47;;;6.10;;
18606;SDS011;9433;42.678;23.360;2022-09-09T00:39:09;9.30;;;6.33;;
18606;SDS011;9433;42.678;23.360;2022-09-09T00:41:46;7.07;;;6.33;;
18606;SDS011;9433;42.678;23.360;2022-09-09T00:44:28;10.27;;;6.53;;
18606;SDS011;9433;42.678;23.360;2022-09-09T00:47:02;6.77;;;5.87;;
18606;SDS011;9433;42.678;23.360;2022-09-09T00:49:41;6.33;;;5.70;;
18606;SDS011;9433;42.678;23.360;2022-09-09T00:52:22;6.97;;;6.27;;
18606;SDS011;9433;42.678;23.360;2022-09-09T00:54:55;10.17;;;7.47;;
18606;SDS011;9433;42.678;23.360;2022-09-09T00:57:30;10.23;;;6.97;;
18606;SDS011;9433;42.678;23.360;2022-09-09T01:00:00;7.17;;;6.40;;
18606;SDS011;9433;42.678;23.360;2022-09-09T01:02:44;6.30;;;5.50;;
18606;SDS011;9433;42.678;23.360;2022-09-09T01:05:20;8.70;;;5.70;;
18606;SDS011;9433;42.678;23.360;2022-09-09T01:07:54;7.33;;;6.27;;
18606;SDS011;9433;42.678;23.360;2022-09-09T01:10:26;7.33;;;5.97;;
18606;SDS011;9433;42.678;23.360;2022-09-09T01:13:04;7.57;;;6.07;;
18606;SDS011;9433;42.678;23.360;2022-09-09T01:15:40;8.70;;;6.27;;
18606;SDS011;9433;42.678;23.360;2022-09-09T01:18:12;6.27;;;5.50;;
18606;SDS011;9433;42.678;23.360;2022-09-09T01:20:44;8.10;;;6.63;;
18606;SDS011;9433;42.678;23.360;2022-09-09T01:26:22;8.53;;;6.43;;
18606;SDS011;9433;42.678;23.360;2022-09-09T01:28:52;6.13;;;5.53;;
18606;SDS011;9433;42.678;23.360;2022-09-09T01:31:20;7.40;;;6.33;;
18606;SDS011;9433;42.678;23.360;2022-09-09T01:33:53;9.17;;;6.37;;
18606;SDS011;9433;42.678;23.360;2022-09-09T01:36:21;7.63;;;6.60;;
18606;SDS011;9433;42.678;23.360;2022-09-09T01:38:54;7.00;;;5.80;;
18606;SDS011;9433;42.678;23.360;2022-09-09T01:41:22;10.43;;;6.90;;
18606;SDS011;9433;42.678;23.360;2022-09-09T01:43:49;5.97;;;5.43;;
18606;SDS011;9433;42.678;23.360;2022-09-09T01:46:17;6.73;;;6.00;;
18606;SDS011;9433;42.678;23.360;2022-09-09T01:48:47;7.77;;;5.70;;
18606;SDS011;9433;42.678;23.360;2022-09-09T01:51:16;7.30;;;5.57;;
18606;SDS011;9433;42.678;23.360;2022-09-09T01:53:43;6.77;;;5.93;;
18606;SDS011;9433;42.678;23.360;2022-09-09T01:56:14;10.67;;;6.80;;
18606;SDS011;9433;42.678;23.360;2022-09-09T01:58:54;6.27;;;5.43;;
18606;SDS011;9433;42.678;23.360;2022-09-09T02:01:30;7.03;;;6.23;;
18606;SDS011;9433;42.678;23.360;2022-09-09T02:04:08;9.07;;;5.87;;
18606;SDS011;9433;42.678;23.360;2022-09-09T02:06:45;7.10;;;6.40;;
18606;SDS011;9433;42.678;23.360;2022-09-09T02:09:14;7.60;;;6.20;;
18606;SDS011;9433;42.678;23.360;2022-09-09T02:11:47;9.93;;;6.40;;
18606;SDS011;9433;42.678;23.360;2022-09-09T02:14:23;12.23;;;7.03;;
18606;SDS011;9433;42.678;23.360;2022-09-09T02:16:54;8.33;;;7.33;;
18606;SDS011;9433;42.678;23.360;2022-09-09T02:19:29;8.63;;;6.23;;
18606;SDS011;9433;42.678;23.360;2022-09-09T02:21:59;7.93;;;6.33;;
18606;SDS011;9433;42.678;23.360;2022-09-09T02:24:28;12.60;;;6.83;;
18606;SDS011;9433;42.678;23.360;2022-09-09T02:26:58;8.77;;;6.60;;
18606;SDS011;9433;42.678;23.360;2022-09-09T02:29:30;7.20;;;6.03;;
18606;SDS011;9433;42.678;23.360;2022-09-09T02:32:00;9.70;;;6.30;;
18606;SDS011;9433;42.678;23.360;2022-09-09T02:34:31;7.67;;;6.87;;
18606;SDS011;9433;42.678;23.360;2022-09-09T02:37:02;6.70;;;6.00;;
18606;SDS011;9433;42.678;23.360;2022-09-09T02:39:30;9.97;;;6.83;;
18606;SDS011;9433;42.678;23.360;2022-09-09T02:41:57;7.03;;;6.13;;
18606;SDS011;9433;42.678;23.360;2022-09-09T02:44:23;6.90;;;6.20;;
18606;SDS011;9433;42.678;23.360;2022-09-09T02:47:03;7.73;;;6.70;;
18606;SDS011;9433;42.678;23.360;2022-09-09T02:49:41;8.13;;;7.27;;
18606;SDS011;9433;42.678;23.360;2022-09-09T02:52:16;8.10;;;6.87;;
18606;SDS011;9433;42.678;23.360;2022-09-09T02:54:48;8.43;;;6.60;;
18606;SDS011;9433;42.678;23.360;2022-09-09T02:57:25;8.40;;;6.83;;
18606;SDS011;9433;42.678;23.360;2022-09-09T02:59:56;9.47;;;6.87;;
18606;SDS011;9433;42.678;23.360;2022-09-09T03:02:25;7.83;;;7.03;;
18606;SDS011;9433;42.678;23.360;2022-09-09T03:04:52;7.63;;;6.80;;
18606;SDS011;9433;42.678;23.360;2022-09-09T03:07:19;9.33;;;7.30;;
18606;SDS011;9433;42.678;23.360;2022-09-09T03:09:46;9.07;;;7.50;;
18606;SDS011;9433;42.678;23.360;2022-09-09T03:12:14;7.93;;;7.13;;
18606;SDS011;9433;42.678;23.360;2022-09-09T03:14:41;7.53;;;6.83;;
18606;SDS011;9433;42.678;23.360;2022-09-09T03:17:09;10.63;;;6.77;;
18606;SDS011;9433;42.678;23.360;2022-09-09T03:19:37;7.87;;;7.13;;
18606;SDS011;9433;42.678;23.360;2022-09-09T03:22:04;8.47;;;7.20;;
18606;SDS011;9433;42.678;23.360;2022-09-09T03:24:31;8.07;;;7.27;;
18606;SDS011;9433;42.678;23.360;2022-09-09T03:26:58;8.97;;;7.33;;
18606;SDS011;9433;42.678;23.360;2022-09-09T03:29:24;9.93;;;7.53;;
18606;SDS011;9433;42.678;23.360;2022-09-09T03:31:51;8.27;;;7.47;;
18606;SDS011;9433;42.678;23.360;2022-09-09T03:34:18;8.67;;;7.77;;
18606;SDS011;9433;42.678;23.360;2022-09-09T03:36:46;9.43;;;7.10;;
18606;SDS011;9433;42.678;23.360;2022-09-09T03:39:14;13.37;;;8.60;;
18606;SDS011;9433;42.678;23.360;2022-09-09T03:41:41;8.80;;;7.80;;
18606;SDS011;9433;42.678;23.360;2022-09-09T03:44:11;11.80;;;8.20;;
18606;SDS011;9433;42.678;23.360;2022-09-09T03:46:38;9.43;;;8.47;;
18606;SDS011;9433;42.678;23.360;2022-09-09T03:49:04;10.73;;;8.33;;
18606;SDS011;9433;42.678;23.360;2022-09-09T03:51:31;8.50;;;7.30;;
18606;SDS011;9433;42.678;23.360;2022-09-09T03:54:05;8.57;;;7.67;;
18606;SDS011;9433;42.678;23.360;2022-09-09T03:56:35;9.03;;;8.13;;
18606;SDS011;9433;42.678;23.360;2022-09-09T03:59:02;9.53;;;8.10;;
18606;SDS011;9433;42.678;23.360;2022-09-09T04:01:29;17.47;;;7.90;;
18606;SDS011;9433;42.678;23.360;2022-09-09T04:03:56;11.03;;;7.83;;
18606;SDS011;9433;42.678;23.360;2022-09-09T04:06:23;7.80;;;7.00;;
18606;SDS011;9433;42.678;23.360;2022-09-09T04:08:51;14.10;;;6.43;;
18606;SDS011;9433;42.678;23.360;2022-09-09T04:11:19;6.43;;;5.60;;
18606;SDS011;9433;42.678;23.360;2022-09-09T04:13:47;9.07;;;5.33;;
18606;SDS011;9433;42.678;23.360;2022-09-09T04:16:14;5.50;;;5.00;;
18606;SDS011;9433;42.678;23.360;2022-09-09T04:18:41;6.50;;;5.03;;
18606;SDS011;9433;42.678;23.360;2022-09-09T04:21:09;5.17;;;4.47;;
18606;SDS011;9433;42.678;23.360;2022-09-09T04:23:37;4.77;;;4.27;;
18606;SDS011;9433;42.678;23.360;2022-09-09T04:26:05;5.73;;;5.13;;
18606;SDS011;9433;42.678;23.360;2022-09-09T04:28:34;7.90;;;5.57;;
18606;SDS011;9433;42.678;23.360;2022-09-09T04:31:05;5.17;;;4.67;;
18606;SDS011;9433;42.678;23.360;2022-09-09T04:33:32;5.47;;;4.97;;
18606;SDS011;9433;42.678;23.360;2022-09-09T04:35:59;5.50;;;4.70;;
18606;SDS011;9433;42.678;23.360;2022-09-09T04:38:26;5.70;;;5.20;;
18606;SDS011;9433;42.678;23.360;2022-09-09T04:40:54;4.47;;;4.07;;
18606;SDS011;9433;42.678;23.360;2022-09-09T04:43:21;5.50;;;4.93;;
18606;SDS011;9433;42.678;23.360;2022-09-09T04:45:52;5.20;;;4.70;;
18606;SDS011;9433;42.678;23.360;2022-09-09T04:48:19;6.03;;;4.90;;
18606;SDS011;9433;42.678;23.360;2022-09-09T04:50:53;5.43;;;4.40;;
18606;SDS011;9433;42.678;23.360;2022-09-09T04:53:21;5.03;;;4.47;;
18606;SDS011;9433;42.678;23.360;2022-09-09T04:55:48;5.60;;;4.73;;
18606;SDS011;9433;42.678;23.360;2022-09-09T04:58:15;5.10;;;4.60;;
18606;SDS011;9433;42.678;23.360;2022-09-09T05:00:42;6.93;;;5.23;;
18606;SDS011;9433;42.678;23.360;2022-09-09T05:03:10;4.97;;;4.57;;
18606;SDS011;9433;42.678;23.360;2022-09-09T05:05:37;5.90;;;5.37;;
18606;SDS011;9433;42.678;23.360;2022-09-09T05:08:05;7.50;;;4.90;;
18606;SDS011;9433;42.678;23.360;2022-09-09T05:10:33;5.77;;;5.17;;
18606;SDS011;9433;42.678;23.360;2022-09-09T05:13:02;5.20;;;4.70;;
18606;SDS011;9433;42.678;23.360;2022-09-09T05:15:33;5.43;;;4.80;;
18606;SDS011;9433;42.678;23.360;2022-09-09T05:18:01;6.27;;;5.67;;
18606;SDS011;9433;42.678;23.360;2022-09-09T05:20:31;8.00;;;5.23;;
18606;SDS011;9433;42.678;23.360;2022-09-09T05:22:58;6.90;;;5.83;;
18606;SDS011;9433;42.678;23.360;2022-09-09T05:25:25;7.53;;;5.43;;
18606;SDS011;9433;42.678;23.360;2022-09-09T05:27:52;6.00;;;5.37;;
18606;SDS011;9433;42.678;23.360;2022-09-09T05:30:20;6.83;;;5.20;;
18606;SDS011;9433;42.678;23.360;2022-09-09T05:32:47;5.67;;;5.03;;
18606;SDS011;9433;42.678;23.360;2022-09-09T05:35:14;8.10;;;5.27;;
18606;SDS011;9433;42.678;23.360;2022-09-09T05:37:43;5.50;;;4.87;;
18606;SDS011;9433;42.678;23.360;2022-09-09T05:40:11;5.60;;;4.73;;
18606;SDS011;9433;42.678;23.360;2022-09-09T05:42:38;3.93;;;3.60;;
18606;SDS011;9433;42.678;23.360;2022-09-09T05:45:05;5.17;;;4.23;;
18606;SDS011;9433;42.678;23.360;2022-09-09T05:47:33;5.30;;;4.80;;
18606;SDS011;9433;42.678;23.360;2022-09-09T05:50:00;8.10;;;5.03;;
18606;SDS011;9433;42.678;23.360;2022-09-09T05:52:27;5.27;;;4.70;;
18606;SDS011;9433;42.678;23.360;2022-09-09T05:54:55;5.77;;;4.90;;
18606;SDS011;9433;42.678;23.360;2022-09-09T05:57:22;5.27;;;4.77;;
18606;SDS011;9433;42.678;23.360;2022-09-09T05:59:49;5.73;;;4.80;;
18606;SDS011;9433;42.678;23.360;2022-09-09T06:02:16;7.03;;;5.03;;
18606;SDS011;9433;42.678;23.360;2022-09-09T06:04:43;8.00;;;5.03;;
18606;SDS011;9433;42.678;23.360;2022-09-09T06:07:09;8.50;;;4.83;;
18606;SDS011;9433;42.678;23.360;2022-09-09T06:09:36;3.87;;;3.47;;
18606;SDS011;9433;42.678;23.360;2022-09-09T06:12:08;6.73;;;3.60;;
18606;SDS011;9433;42.678;23.360;2022-09-09T06:14:35;4.13;;;3.73;;
18606;SDS011;9433;42.678;23.360;2022-09-09T06:17:02;4.70;;;3.50;;
18606;SDS011;9433;42.678;23.360;2022-09-09T06:19:28;4.47;;;3.70;;
18606;SDS011;9433;42.678;23.360;2022-09-09T06:21:55;3.83;;;3.47;;
18606;SDS011;9433;42.678;23.360;2022-09-09T06:24:22;5.57;;;3.53;;
18606;SDS011;9433;42.678;23.360;2022-09-09T06:26:49;4.40;;;4.00;;
18606;SDS011;9433;42.678;23.360;2022-09-09T06:29:17;4.83;;;3.37;;
18606;SDS011;9433;42.678;23.360;2022-09-09T06:31:44;3.53;;;3.23;;
18606;SDS011;9433;42.678;23.360;2022-09-09T06:34:12;4.93;;;3.30;;
18606;SDS011;9433;42.678;23.360;2022-09-09T06:36:39;3.60;;;3.30;;
18606;SDS011;9433;42.678;23.360;2022-09-09T06:39:06;3.10;;;2.90;;
18606;SDS011;9433;42.678;23.360;2022-09-09T06:41:36;4.13;;;3.17;;
18606;SDS011;9433;42.678;23.360;2022-09-09T06:44:04;3.53;;;2.90;;
18606;SDS011;9433;42.678;23.360;2022-09-09T06:46:34;3.73;;;3.30;;
18606;SDS011;9433;42.678;23.360;2022-09-09T06:49:01;3.13;;;2.87;;
18606;SDS011;9433;42.678;23.360;2022-09-09T06:51:28;5.57;;;3.20;;
18606;SDS011;9433;42.678;23.360;2022-09-09T06:53:57;3.10;;;2.90;;
18606;SDS011;9433;42.678;23.360;2022-09-09T06:56:25;3.93;;;2.50;;
18606;SDS011;9433;42.678;23.360;2022-09-09T06:58:54;4.43;;;2.57;;
18606;SDS011;9433;42.678;23.360;2022-09-09T07:01:24;2.03;;;1.93;;
18606;SDS011;9433;42.678;23.360;2022-09-09T07:03:53;2.40;;;2.20;;
18606;SDS011;9433;42.678;23.360;2022-09-09T07:06:24;6.57;;;3.57;;
18606;SDS011;9433;42.678;23.360;2022-09-09T07:08:55;2.53;;;2.33;;
18606;SDS011;9433;42.678;23.360;2022-09-09T07:11:24;2.57;;;2.37;;
18606;SDS011;9433;42.678;23.360;2022-09-09T07:13:53;3.23;;;2.50;;
18606;SDS011;9433;42.678;23.360;2022-09-09T07:16:23;2.60;;;2.33;;
18606;SDS011;9433;42.678;23.360;2022-09-09T07:18:55;2.47;;;2.27;;
18606;SDS011;9433;42.678;23.360;2022-09-09T07:21:23;4.63;;;2.53;;
18606;SDS011;9433;42.678;23.360;2022-09-09T07:23:51;4.13;;;2.90;;
18606;SDS011;9433;42.678;23.360;2022-09-09T07:26:19;2.97;;;2.73;;
18606;SDS011;9433;42.678;23.360;2022-09-09T07:28:49;2.70;;;2.50;;
18606;SDS011;9433;42.678;23.360;2022-09-09T07:31:16;2.77;;;2.57;;
18606;SDS011;9433;42.678;23.360;2022-09-09T07:33:45;2.40;;;2.20;;
18606;SDS011;9433;42.678;23.360;2022-09-09T07:36:15;2.83;;;2.63;;
18606;SDS011;9433;42.678;23.360;2022-09-09T07:38:48;2.63;;;2.40;;
18606;SDS011;9433;42.678;23.360;2022-09-09T07:41:17;2.60;;;2.40;;
18606;SDS011;9433;42.678;23.360;2022-09-09T07:43:46;3.07;;;2.77;;
18606;SDS011;9433;42.678;23.360;2022-09-09T07:46:15;3.57;;;2.80;;
18606;SDS011;9433;42.678;23.360;2022-09-09T07:48:44;3.63;;;2.73;;
18606;SDS011;9433;42.678;23.360;2022-09-09T07:51:12;3.07;;;2.77;;
18606;SDS011;9433;42.678;23.360;2022-09-09T07:53:43;4.60;;;3.03;;
18606;SDS011;9433;42.678;23.360;2022-09-09T07:56:11;4.43;;;2.30;;
18606;SDS011;9433;42.678;23.360;2022-09-09T07:58:40;2.63;;;2.42;;
18606;SDS011;9433;42.678;23.360;2022-09-09T08:01:08;3.30;;;3.00;;
18606;SDS011;9433;42.678;23.360;2022-09-09T08:03:36;2.53;;;2.33;;
18606;SDS011;9433;42.678;23.360;2022-09-09T08:06:04;2.90;;;2.70;;
18606;SDS011;9433;42.678;23.360;2022-09-09T08:08:33;3.53;;;2.85;;
18606;SDS011;9433;42.678;23.360;2022-09-09T08:11:03;4.28;;;3.22;;
18606;SDS011;9433;42.678;23.360;2022-09-09T08:13:34;2.53;;;2.30;;
18606;SDS011;9433;42.678;23.360;2022-09-09T08:16:05;3.50;;;3.20;;
18606;SDS011;9433;42.678;23.360;2022-09-09T08:18:33;4.30;;;2.75;;
18606;SDS011;9433;42.678;23.360;2022-09-09T08:21:07;2.97;;;2.67;;
18606;SDS011;9433;42.678;23.360;2022-09-09T08:23:37;2.95;;;2.63;;
18606;SDS011;9433;42.678;23.360;2022-09-09T08:26:09;3.13;;;2.38;;
18606;SDS011;9433;42.678;23.360;2022-09-09T08:28:38;2.97;;;2.67;;
18606;SDS011;9433;42.678;23.360;2022-09-09T08:31:06;2.40;;;2.17;;
18606;SDS011;9433;42.678;23.360;2022-09-09T08:33:34;2.60;;;2.40;;
18606;SDS011;9433;42.678;23.360;2022-09-09T08:36:02;2.50;;;2.30;;
18606;SDS011;9433;42.678;23.360;2022-09-09T08:38:29;2.88;;;2.63;;
18606;SDS011;9433;42.678;23.360;2022-09-09T08:40:58;4.65;;;2.78;;
18606;SDS011;9433;42.678;23.360;2022-09-09T08:43:46;2.78;;;2.58;;
18606;SDS011;9433;42.678;23.360;2022-09-09T08:46:15;2.85;;;2.65;;
18606;SDS011;9433;42.678;23.360;2022-09-09T08:48:51;2.95;;;2.67;;
18606;SDS011;9433;42.678;23.360;2022-09-09T08:51:24;3.67;;;2.65;;
18606;SDS011;9433;42.678;23.360;2022-09-09T08:53:54;3.50;;;2.38;;
18606;SDS011;9433;42.678;23.360;2022-09-09T08:56:25;2.75;;;2.40;;
18606;SDS011;9433;42.678;23.360;2022-09-09T08:58:55;3.97;;;3.00;;
18606;SDS011;9433;42.678;23.360;2022-09-09T09:01:35;3.50;;;3.20;;
18606;SDS011;9433;42.678;23.360;2022-09-09T09:04:13;3.83;;;2.70;;
18606;SDS011;9433;42.678;23.360;2022-09-09T09:06:53;2.38;;;2.17;;
18606;SDS011;9433;42.678;23.360;2022-09-09T09:09:27;3.28;;;2.83;;
18606;SDS011;9433;42.678;23.360;2022-09-09T09:12:10;3.28;;;2.97;;
18606;SDS011;9433;42.678;23.360;2022-09-09T09:14:43;2.72;;;2.50;;
18606;SDS011;9433;42.678;23.360;2022-09-09T09:17:13;3.20;;;2.58;;
18606;SDS011;9433;42.678;23.360;2022-09-09T09:19:41;2.28;;;2.08;;
18606;SDS011;9433;42.678;23.360;2022-09-09T09:22:11;3.58;;;3.00;;
18606;SDS011;9433;42.678;23.360;2022-09-09T09:24:45;2.63;;;2.42;;
18606;SDS011;9433;42.678;23.360;2022-09-09T09:27:19;3.40;;;3.10;;
18606;SDS011;9433;42.678;23.360;2022-09-09T09:29:55;2.97;;;2.78;;
18606;SDS011;9433;42.678;23.360;2022-09-09T09:32:24;2.70;;;2.50;;
18606;SDS011;9433;42.678;23.360;2022-09-09T09:34:59;3.50;;;2.90;;
18606;SDS011;9433;42.678;23.360;2022-09-09T09:37:31;3.25;;;2.75;;
18606;SDS011;9433;42.678;23.360;2022-09-09T09:40:07;2.90;;;2.70;;
18606;SDS011;9433;42.678;23.360;2022-09-09T09:42:35;2.85;;;2.60;;
18606;SDS011;9433;42.678;23.360;2022-09-09T09:45:16;3.70;;;2.40;;
18606;SDS011;9433;42.678;23.360;2022-09-09T09:47:57;3.28;;;2.97;;
18606;SDS011;9433;42.678;23.360;2022-09-09T09:50:24;3.03;;;2.65;;
18606;SDS011;9433;42.678;23.360;2022-09-09T09:52:55;2.55;;;2.35;;
18606;SDS011;9433;42.678;23.360;2022-09-09T09:55:23;3.20;;;2.90;;
18606;SDS011;9433;42.678;23.360;2022-09-09T09:57:52;4.22;;;2.55;;
18606;SDS011;9433;42.678;23.360;2022-09-09T10:00:22;3.33;;;3.03;;
18606;SDS011;9433;42.678;23.360;2022-09-09T10:02:49;3.15;;;2.83;;
18606;SDS011;9433;42.678;23.360;2022-09-09T10:05:18;2.95;;;2.42;;
18606;SDS011;9433;42.678;23.360;2022-09-09T10:07:47;3.70;;;3.22;;
18606;SDS011;9433;42.678;23.360;2022-09-09T10:10:26;3.28;;;2.97;;
18606;SDS011;9433;42.678;23.360;2022-09-09T10:13:05;3.78;;;3.47;;
18606;SDS011;9433;42.678;23.360;2022-09-09T10:15:40;3.05;;;2.75;;
18606;SDS011;9433;42.678;23.360;2022-09-09T10:18:30;2.88;;;2.53;;
18606;SDS011;9433;42.678;23.360;2022-09-09T10:21:12;3.10;;;2.85;;
18606;SDS011;9433;42.678;23.360;2022-09-09T10:23:54;5.30;;;2.83;;
18606;SDS011;9433;42.678;23.360;2022-09-09T10:26:34;2.97;;;2.72;;
18606;SDS011;9433;42.678;23.360;2022-09-09T10:29:19;2.65;;;2.45;;
18606;SDS011;9433;42.678;23.360;2022-09-09T10:32:01;3.33;;;3.03;;
18606;SDS011;9433;42.678;23.360;2022-09-09T10:34:45;3.33;;;3.03;;
18606;SDS011;9433;42.678;23.360;2022-09-09T10:37:28;3.30;;;2.95;;
18606;SDS011;9433;42.678;23.360;2022-09-09T10:40:13;3.50;;;2.85;;
18606;SDS011;9433;42.678;23.360;2022-09-09T10:42:56;4.05;;;2.88;;
18606;SDS011;9433;42.678;23.360;2022-09-09T10:45:32;3.17;;;2.55;;
18606;SDS011;9433;42.678;23.360;2022-09-09T10:48:12;3.13;;;2.83;;
18606;SDS011;9433;42.678;23.360;2022-09-09T10:50:56;3.40;;;3.20;;
18606;SDS011;9433;42.678;23.360;2022-09-09T10:53:35;3.80;;;2.70;;
18606;SDS011;9433;42.678;23.360;2022-09-09T10:56:08;3.75;;;3.30;;
18606;SDS011;9433;42.678;23.360;2022-09-09T10:58:41;4.75;;;3.08;;
18606;SDS011;9433;42.678;23.360;2022-09-09T11:01:16;3.45;;;2.55;;
18606;SDS011;9433;42.678;23.360;2022-09-09T11:03:51;3.65;;;2.92;;
18606;SDS011;9433;42.678;23.360;2022-09-09T11:06:24;3.85;;;3.45;;
18606;SDS011;9433;42.678;23.360;2022-09-09T11:08:56;3.22;;;2.75;;
18606;SDS011;9433;42.678;23.360;2022-09-09T11:11:27;4.13;;;3.78;;
18606;SDS011;9433;42.678;23.360;2022-09-09T11:13:59;4.22;;;3.15;;
18606;SDS011;9433;42.678;23.360;2022-09-09T11:16:33;4.68;;;2.83;;
18606;SDS011;9433;42.678;23.360;2022-09-09T11:19:11;3.40;;;3.10;;
18606;SDS011;9433;42.678;23.360;2022-09-09T11:21:44;4.50;;;3.55;;
18606;SDS011;9433;42.678;23.360;2022-09-09T11:24:13;3.55;;;3.22;;
18606;SDS011;9433;42.678;23.360;2022-09-09T11:26:45;3.95;;;3.20;;
18606;SDS011;9433;42.678;23.360;2022-09-09T11:29:24;3.38;;;3.08;;
18606;SDS011;9433;42.678;23.360;2022-09-09T11:32:12;3.50;;;3.20;;
18606;SDS011;9433;42.678;23.360;2022-09-09T11:34:59;3.58;;;3.28;;
18606;SDS011;9433;42.678;23.360;2022-09-09T11:37:45;5.32;;;3.78;;
18606;SDS011;9433;42.678;23.360;2022-09-09T11:40:23;5.90;;;3.78;;
18606;SDS011;9433;42.678;23.360;2022-09-09T11:43:00;4.57;;;3.55;;
18606;SDS011;9433;42.678;23.360;2022-09-09T11:45:31;4.65;;;3.78;;
18606;SDS011;9433;42.678;23.360;2022-09-09T11:47:59;4.25;;;3.65;;
18606;SDS011;9433;42.678;23.360;2022-09-09T11:50:29;3.80;;;3.47;;
18606;SDS011;9433;42.678;23.360;2022-09-09T11:55:59;3.60;;;3.30;;
18606;SDS011;9433;42.678;23.360;2022-09-09T11:58:42;4.20;;;3.72;;
18606;SDS011;9433;42.678;23.360;2022-09-09T12:10:00;3.60;;;3.15;;
18606;SDS011;9433;42.678;23.360;2022-09-09T12:12:38;3.47;;;3.10;;
18606;SDS011;9433;42.678;23.360;2022-09-09T12:15:19;3.60;;;3.30;;
18606;SDS011;9433;42.678;23.360;2022-09-09T12:17:58;3.75;;;3.30;;
18606;SDS011;9433;42.678;23.360;2022-09-09T12:20:36;4.45;;;3.72;;
18606;SDS011;9433;42.678;23.360;2022-09-09T12:23:23;4.70;;;3.72;;
18606;SDS011;9433;42.678;23.360;2022-09-09T12:26:15;7.20;;;3.95;;
18606;SDS011;9433;42.678;23.360;2022-09-09T12:29:05;3.72;;;3.42;;
18606;SDS011;9433;42.678;23.360;2022-09-09T12:31:49;6.03;;;3.50;;
18606;SDS011;9433;42.678;23.360;2022-09-09T12:34:26;4.53;;;3.63;;
18606;SDS011;9433;42.678;23.360;2022-09-09T12:37:03;4.85;;;3.58;;
18606;SDS011;9433;42.678;23.360;2022-09-09T12:39:37;5.32;;;3.70;;
18606;SDS011;9433;42.678;23.360;2022-09-09T12:42:15;3.72;;;3.40;;
18606;SDS011;9433;42.678;23.360;2022-09-09T12:44:50;4.40;;;3.97;;
18606;SDS011;9433;42.678;23.360;2022-09-09T12:47:18;5.35;;;3.88;;
18606;SDS011;9433;42.678;23.360;2022-09-09T12:49:48;4.35;;;3.95;;
18606;SDS011;9433;42.678;23.360;2022-09-09T12:52:18;5.40;;;3.38;;
18606;SDS011;9433;42.678;23.360;2022-09-09T12:54:50;4.97;;;3.45;;
18606;SDS011;9433;42.678;23.360;2022-09-09T12:57:18;4.53;;;3.72;;
18606;SDS011;9433;42.678;23.360;2022-09-09T12:59:49;3.80;;;3.50;;
18606;SDS011;9433;42.678;23.360;2022-09-09T13:02:20;5.50;;;4.10;;
18606;SDS011;9433;42.678;23.360;2022-09-09T13:04:49;3.95;;;3.58;;
18606;SDS011;9433;42.678;23.360;2022-09-09T13:07:16;5.57;;;3.95;;
18606;SDS011;9433;42.678;23.360;2022-09-09T13:09:44;4.05;;;3.75;;
18606;SDS011;9433;42.678;23.360;2022-09-09T13:12:16;5.43;;;3.63;;
18606;SDS011;9433;42.678;23.360;2022-09-09T13:14:46;6.30;;;4.00;;
18606;SDS011;9433;42.678;23.360;2022-09-09T13:17:17;7.07;;;3.97;;
18606;SDS011;9433;42.678;23.360;2022-09-09T13:19:47;4.53;;;3.70;;
18606;SDS011;9433;42.678;23.360;2022-09-09T13:22:20;3.60;;;3.30;;
18606;SDS011;9433;42.678;23.360;2022-09-09T13:24:58;4.03;;;3.25;;
18606;SDS011;9433;42.678;23.360;2022-09-09T13:27:30;4.13;;;3.70;;
18606;SDS011;9433;42.678;23.360;2022-09-09T13:29:59;5.10;;;4.28;;
18606;SDS011;9433;42.678;23.360;2022-09-09T13:32:27;4.10;;;3.78;;
18606;SDS011;9433;42.678;23.360;2022-09-09T13:34:57;3.83;;;3.53;;
18606;SDS011;9433;42.678;23.360;2022-09-09T13:37:39;3.72;;;3.22;;
18606;SDS011;9433;42.678;23.360;2022-09-09T13:40:12;3.97;;;3.67;;
18606;SDS011;9433;42.678;23.360;2022-09-09T13:42:45;4.35;;;3.95;;
18606;SDS011;9433;42.678;23.360;2022-09-09T13:45:15;3.95;;;3.55;;
18606;SDS011;9433;42.678;23.360;2022-09-09T13:47:46;4.00;;;3.45;;
18606;SDS011;9433;42.678;23.360;2022-09-09T13:50:20;5.10;;;3.92;;
18606;SDS011;9433;42.678;23.360;2022-09-09T13:52:49;6.38;;;3.72;;
18606;SDS011;9433;42.678;23.360;2022-09-09T13:55:18;5.93;;;3.95;;
18606;SDS011;9433;42.678;23.360;2022-09-09T13:57:51;4.13;;;3.72;;
18606;SDS011;9433;42.678;23.360;2022-09-09T14:00:19;4.53;;;4.10;;
18606;SDS011;9433;42.678;23.360;2022-09-09T14:02:47;6.15;;;4.18;;
18606;SDS011;9433;42.678;23.360;2022-09-09T14:05:14;6.20;;;3.85;;
18606;SDS011;9433;42.678;23.360;2022-09-09T14:07:41;3.67;;;3.38;;
18606;SDS011;9433;42.678;23.360;2022-09-09T14:10:08;5.07;;;3.50;;
18606;SDS011;9433;42.678;23.360;2022-09-09T14:12:35;5.97;;;3.45;;
18606;SDS011;9433;42.678;23.360;2022-09-09T14:15:04;4.97;;;3.60;;
18606;SDS011;9433;42.678;23.360;2022-09-09T14:17:32;3.95;;;3.50;;
18606;SDS011;9433;42.678;23.360;2022-09-09T14:20:01;3.50;;;3.20;;
18606;SDS011;9433;42.678;23.360;2022-09-09T14:22:28;4.40;;;4.00;;
18606;SDS011;9433;42.678;23.360;2022-09-09T14:24:55;3.83;;;3.47;;
18606;SDS011;9433;42.678;23.360;2022-09-09T14:27:23;4.00;;;3.60;;
18606;SDS011;9433;42.678;23.360;2022-09-09T14:29:51;3.83;;;3.47;;
18606;SDS011;9433;42.678;23.360;2022-09-09T14:32:19;3.45;;;2.92;;
18606;SDS011;9433;42.678;23.360;2022-09-09T14:34:46;3.97;;;3.28;;
18606;SDS011;9433;42.678;23.360;2022-09-09T14:37:14;3.40;;;3.10;;
18606;SDS011;9433;42.678;23.360;2022-09-09T14:39:41;3.50;;;3.20;;
18606;SDS011;9433;42.678;23.360;2022-09-09T14:42:09;3.55;;;3.25;;
18606;SDS011;9433;42.678;23.360;2022-09-09T14:44:37;3.20;;;2.83;;
18606;SDS011;9433;42.678;23.360;2022-09-09T14:47:03;5.78;;;3.45;;
18606;SDS011;9433;42.678;23.360;2022-09-09T14:49:32;6.10;;;3.80;;
18606;SDS011;9433;42.678;23.360;2022-09-09T14:51:58;4.25;;;3.83;;
18606;SDS011;9433;42.678;23.360;2022-09-09T14:54:26;4.75;;;3.60;;
18606;SDS011;9433;42.678;23.360;2022-09-09T14:56:53;3.33;;;3.08;;
18606;SDS011;9433;42.678;23.360;2022-09-09T14:59:20;3.95;;;3.58;;
18606;SDS011;9433;42.678;23.360;2022-09-09T15:01:47;4.55;;;4.15;;
18606;SDS011;9433;42.678;23.360;2022-09-09T15:04:14;5.63;;;4.28;;
18606;SDS011;9433;42.678;23.360;2022-09-09T15:06:43;3.80;;;3.28;;
18606;SDS011;9433;42.678;23.360;2022-09-09T15:09:13;4.95;;;4.00;;
18606;SDS011;9433;42.678;23.360;2022-09-09T15:11:40;6.53;;;3.85;;
18606;SDS011;9433;42.678;23.360;2022-09-09T15:14:10;6.35;;;4.32;;
18606;SDS011;9433;42.678;23.360;2022-09-09T15:16:37;6.38;;;4.10;;
18606;SDS011;9433;42.678;23.360;2022-09-09T15:19:05;3.65;;;3.35;;
18606;SDS011;9433;42.678;23.360;2022-09-09T15:21:32;5.18;;;3.17;;
18606;SDS011;9433;42.678;23.360;2022-09-09T15:24:03;4.20;;;3.80;;
18606;SDS011;9433;42.678;23.360;2022-09-09T15:26:32;4.32;;;3.92;;